Alyeska Resort
Max's Hourly Weather Roundup
ALYESKA_MAX 12/4/2016
Click Here for Graph

        DATE  TIME   Air  Wind  Wind  Wind  BATT   Rel
                    Temp   Spd   Dir  Gust  Volt  Hum%
                      F   MPH   AVG   MPH   AVG   AVG

   12/4/2016 07:00    -3     6   178    11 12.55    93
   12/4/2016 06:00    -2     5   157    10 12.55    93
   12/4/2016 05:00    -2     4   164     9 12.55    93
   12/4/2016 04:00    -2     6   160    13 12.55    93
   12/4/2016 03:00    -1     6   166    10 12.55    94
   12/4/2016 02:00     0     3   177     9 12.55    94
   12/4/2016 01:00     0     2   220     6 12.55    94
   12/3/2016 24:00     0     2   192     6 12.55    94
   12/3/2016 23:00     1     0   298     0 12.56    94
   12/3/2016 22:00     1     0   270     0 12.56    94
   12/3/2016 21:00     1     1   227     5 12.56    94
   12/3/2016 20:00     0     5   170    11 12.56    94
   12/3/2016 19:00     1     6   168    14 12.57    94
   12/3/2016 18:00     1    10   184    18 12.57    94
   12/3/2016 17:00     1    10   180    20 12.57    95
   12/3/2016 16:00     2     6   179    14 12.57    95
   12/3/2016 15:00     2     7   188    21 12.58    95
   12/3/2016 14:00     1    11   202    25 12.61    95
   12/3/2016 13:00     1    10   195    17 12.62    95
   12/3/2016 12:00     1     6   192    12 12.61    95
   12/3/2016 11:00     1     8   198    19 12.58    94
   12/3/2016 10:00     0    10   205    19 12.59    94
   12/3/2016 09:00     1     8   199    17 12.59    94
   12/3/2016 08:00     1     6   186    13 12.60    95


Click Here for Graph